sensor_id;sensor_type;location;lat;lon;timestamp;pressure;altitude;pressure_sealevel;temperature;humidity
74075;BME280;62428;51.412;5.432;2023-07-13T00:01:26;101303.28;;;17.26;64.14
74075;BME280;62428;51.412;5.432;2023-07-13T00:03:52;101304.72;;;17.24;64.34
74075;BME280;62428;51.412;5.432;2023-07-13T00:06:17;101300.75;;;17.21;64.82
74075;BME280;62428;51.412;5.432;2023-07-13T00:08:44;101306.84;;;17.18;64.92
74075;BME280;62428;51.412;5.432;2023-07-13T00:11:10;101301.41;;;17.18;64.82
74075;BME280;62428;51.412;5.432;2023-07-13T00:13:35;101294.38;;;17.17;64.77
74075;BME280;62428;51.412;5.432;2023-07-13T00:16:03;101300.47;;;17.14;64.57
74075;BME280;62428;51.412;5.432;2023-07-13T00:18:29;101308.09;;;17.12;65.25
74075;BME280;62428;51.412;5.432;2023-07-13T00:20:55;101309.56;;;17.09;65.23
74075;BME280;62428;51.412;5.432;2023-07-13T00:23:22;101309.41;;;17.06;65.24
74075;BME280;62428;51.412;5.432;2023-07-13T00:25:48;101303.84;;;17.02;66.16
74075;BME280;62428;51.412;5.432;2023-07-13T00:28:15;101303.69;;;16.99;66.11
74075;BME280;62428;51.412;5.432;2023-07-13T00:30:41;101304.81;;;16.98;65.90
74075;BME280;62428;51.412;5.432;2023-07-13T00:33:06;101304.31;;;16.96;66.06
74075;BME280;62428;51.412;5.432;2023-07-13T00:35:32;101305.78;;;16.93;66.13
74075;BME280;62428;51.412;5.432;2023-07-13T00:37:58;101296.69;;;16.89;66.43
74075;BME280;62428;51.412;5.432;2023-07-13T00:40:23;101308.97;;;16.86;66.72
74075;BME280;62428;51.412;5.432;2023-07-13T00:42:52;101311.53;;;16.83;66.62
74075;BME280;62428;51.412;5.432;2023-07-13T00:47:43;101312.50;;;16.78;67.01
74075;BME280;62428;51.412;5.432;2023-07-13T00:50:12;101316.66;;;16.76;67.17
74075;BME280;62428;51.412;5.432;2023-07-13T00:52:43;101318.09;;;16.73;67.58
74075;BME280;62428;51.412;5.432;2023-07-13T00:55:11;101314.25;;;16.74;67.42
74075;BME280;62428;51.412;5.432;2023-07-13T00:57:37;101308.84;;;16.74;67.56
74075;BME280;62428;51.412;5.432;2023-07-13T01:00:06;101310.41;;;16.75;67.81
74075;BME280;62428;51.412;5.432;2023-07-13T01:02:36;101307.38;;;16.77;67.82
74075;BME280;62428;51.412;5.432;2023-07-13T01:05:09;101306.59;;;16.76;67.53
74075;BME280;62428;51.412;5.432;2023-07-13T01:07:35;101306.59;;;16.76;68.20
74075;BME280;62428;51.412;5.432;2023-07-13T01:10:02;101308.69;;;16.70;68.49
74075;BME280;62428;51.412;5.432;2023-07-13T01:12:28;101311.72;;;16.69;68.49
74075;BME280;62428;51.412;5.432;2023-07-13T01:15:00;101313.94;;;16.67;68.37
74075;BME280;62428;51.412;5.432;2023-07-13T01:17:27;101320.78;;;16.64;69.47
74075;BME280;62428;51.412;5.432;2023-07-13T01:19:53;101317.28;;;16.64;69.20
74075;BME280;62428;51.412;5.432;2023-07-13T01:22:20;101317.13;;;16.60;69.15
74075;BME280;62428;51.412;5.432;2023-07-13T01:24:51;101325.13;;;16.57;69.66
74075;BME280;62428;51.412;5.432;2023-07-13T01:27:21;101321.94;;;16.55;69.62
74075;BME280;62428;51.412;5.432;2023-07-13T01:29:47;101314.91;;;16.53;69.71
74075;BME280;62428;51.412;5.432;2023-07-13T01:32:19;101309.81;;;16.52;69.61
74075;BME280;62428;51.412;5.432;2023-07-13T01:34:48;101315.56;;;16.50;70.13
74075;BME280;62428;51.412;5.432;2023-07-13T01:37:14;101310.44;;;16.49;69.86
74075;BME280;62428;51.412;5.432;2023-07-13T01:39:39;101313.78;;;16.46;70.12
74075;BME280;62428;51.412;5.432;2023-07-13T01:42:05;101314.44;;;16.43;70.11
74075;BME280;62428;51.412;5.432;2023-07-13T01:44:31;101319.72;;;16.39;70.62
74075;BME280;62428;51.412;5.432;2023-07-13T01:46:57;101316.84;;;16.36;71.00
74075;BME280;62428;51.412;5.432;2023-07-13T01:49:22;101324.16;;;16.35;71.10
74075;BME280;62428;51.412;5.432;2023-07-13T01:51:47;101320.34;;;16.36;70.86
74075;BME280;62428;51.412;5.432;2023-07-13T01:54:13;101323.06;;;16.36;71.22
74075;BME280;62428;51.412;5.432;2023-07-13T01:56:38;101319.56;;;16.36;71.31
74075;BME280;62428;51.412;5.432;2023-07-13T01:59:05;101321.44;;;16.35;71.09
74075;BME280;62428;51.412;5.432;2023-07-13T02:01:30;101324.47;;;16.33;71.49
74075;BME280;62428;51.412;5.432;2023-07-13T02:03:55;101327.84;;;16.30;71.65
74075;BME280;62428;51.412;5.432;2023-07-13T02:06:21;101332.13;;;16.31;71.67
74075;BME280;62428;51.412;5.432;2023-07-13T02:08:46;101335.16;;;16.30;71.60
74075;BME280;62428;51.412;5.432;2023-07-13T02:11:12;101328.16;;;16.29;71.62
74075;BME280;62428;51.412;5.432;2023-07-13T02:13:37;101342.03;;;16.27;71.73
74075;BME280;62428;51.412;5.432;2023-07-13T02:16:03;101332.94;;;16.23;71.90
74075;BME280;62428;51.412;5.432;2023-07-13T02:18:29;101339.94;;;16.24;72.26
74075;BME280;62428;51.412;5.432;2023-07-13T02:20:54;101335.97;;;16.22;72.24
74075;BME280;62428;51.412;5.432;2023-07-13T02:23:19;101334.34;;;16.21;72.57
74075;BME280;62428;51.412;5.432;2023-07-13T02:25:45;101331.97;;;16.19;72.74
74075;BME280;62428;51.412;5.432;2023-07-13T02:28:11;101331.00;;;16.15;72.81
74075;BME280;62428;51.412;5.432;2023-07-13T02:30:37;101333.72;;;16.15;73.13
74075;BME280;62428;51.412;5.432;2023-07-13T02:33:03;101336.25;;;16.11;73.13
74075;BME280;62428;51.412;5.432;2023-07-13T02:35:29;101341.19;;;16.09;73.60
74075;BME280;62428;51.412;5.432;2023-07-13T02:37:54;101339.63;;;16.08;73.46
74075;BME280;62428;51.412;5.432;2023-07-13T02:40:20;101332.91;;;16.06;73.65
74075;BME280;62428;51.412;5.432;2023-07-13T02:42:45;101332.13;;;16.05;73.71
74075;BME280;62428;51.412;5.432;2023-07-13T02:45:11;101333.22;;;16.04;73.85
74075;BME280;62428;51.412;5.432;2023-07-13T02:47:40;101335.13;;;16.04;74.14
74075;BME280;62428;51.412;5.432;2023-07-13T02:50:06;101332.25;;;16.00;74.06
74075;BME280;62428;51.412;5.432;2023-07-13T02:52:32;101329.06;;;15.98;74.29
74075;BME280;62428;51.412;5.432;2023-07-13T02:54:57;101335.94;;;15.95;74.15
74075;BME280;62428;51.412;5.432;2023-07-13T02:57:23;101335.44;;;15.93;74.82
74075;BME280;62428;51.412;5.432;2023-07-13T02:59:48;101337.66;;;15.91;74.87
74075;BME280;62428;51.412;5.432;2023-07-13T03:02:15;101331.75;;;15.89;75.01
74075;BME280;62428;51.412;5.432;2023-07-13T03:04:40;101329.03;;;15.89;74.99
74075;BME280;62428;51.412;5.432;2023-07-13T03:07:07;101338.94;;;15.85;74.90
74075;BME280;62428;51.412;5.432;2023-07-13T03:09:33;101332.25;;;15.83;75.02
74075;BME280;62428;51.412;5.432;2023-07-13T03:12:01;101330.94;;;15.80;75.17
74075;BME280;62428;51.412;5.432;2023-07-13T03:14:26;101331.59;;;15.77;75.64
74075;BME280;62428;51.412;5.432;2023-07-13T03:16:52;101335.56;;;15.80;75.50
74075;BME280;62428;51.412;5.432;2023-07-13T03:19:18;101335.88;;;15.78;75.53
74075;BME280;62428;51.412;5.432;2023-07-13T03:21:44;101337.63;;;15.74;75.78
74075;BME280;62428;51.412;5.432;2023-07-13T03:24:10;101339.22;;;15.75;76.03
74075;BME280;62428;51.412;5.432;2023-07-13T03:26:35;101344.63;;;15.75;76.08
74075;BME280;62428;51.412;5.432;2023-07-13T03:29:01;101343.84;;;15.74;76.06
74075;BME280;62428;51.412;5.432;2023-07-13T03:31:29;101345.75;;;15.74;76.20
74075;BME280;62428;51.412;5.432;2023-07-13T03:33:55;101349.06;;;15.71;76.68
74075;BME280;62428;51.412;5.432;2023-07-13T03:36:26;101349.84;;;15.71;76.43
74075;BME280;62428;51.412;5.432;2023-07-13T03:38:54;101350.47;;;15.68;76.56
74075;BME280;62428;51.412;5.432;2023-07-13T03:41:21;101365.13;;;15.67;76.70
74075;BME280;62428;51.412;5.432;2023-07-13T03:43:47;101365.13;;;15.67;76.65
74075;BME280;62428;51.412;5.432;2023-07-13T03:46:13;101361.63;;;15.67;76.92
74075;BME280;62428;51.412;5.432;2023-07-13T03:48:38;101357.63;;;15.64;76.81
74075;BME280;62428;51.412;5.432;2023-07-13T03:51:06;101358.75;;;15.63;77.10
74075;BME280;62428;51.412;5.432;2023-07-13T03:53:31;101363.38;;;15.63;77.29
74075;BME280;62428;51.412;5.432;2023-07-13T03:55:57;101362.25;;;15.64;77.50
74075;BME280;62428;51.412;5.432;2023-07-13T03:58:29;101359.84;;;15.62;77.79
74075;BME280;62428;51.412;5.432;2023-07-13T04:00:56;101363.69;;;15.61;77.81
74075;BME280;62428;51.412;5.432;2023-07-13T04:03:23;101375.78;;;15.64;77.71
74075;BME280;62428;51.412;5.432;2023-07-13T04:05:48;101369.56;;;15.63;77.90
74075;BME280;62428;51.412;5.432;2023-07-13T04:08:14;101376.09;;;15.62;77.87
74075;BME280;62428;51.412;5.432;2023-07-13T04:10:40;101376.09;;;15.62;78.34
74075;BME280;62428;51.412;5.432;2023-07-13T04:13:06;101379.44;;;15.59;78.53
74075;BME280;62428;51.412;5.432;2023-07-13T04:15:32;101379.44;;;15.59;78.87
74075;BME280;62428;51.412;5.432;2023-07-13T04:17:58;101379.75;;;15.57;79.05
74075;BME280;62428;51.412;5.432;2023-07-13T04:20:26;101382.94;;;15.60;79.08
74075;BME280;62428;51.412;5.432;2023-07-13T04:22:52;101383.91;;;15.64;79.43
74075;BME280;62428;51.412;5.432;2023-07-13T04:25:18;101387.09;;;15.66;79.60
74075;BME280;62428;51.412;5.432;2023-07-13T04:27:44;101390.81;;;15.70;79.55
74075;BME280;62428;51.412;5.432;2023-07-13T04:30:09;101384.75;;;15.73;79.93
74075;BME280;62428;51.412;5.432;2023-07-13T04:32:35;101384.47;;;15.74;79.95
74075;BME280;62428;51.412;5.432;2023-07-13T04:35:00;101388.97;;;15.79;79.96
74075;BME280;62428;51.412;5.432;2023-07-13T04:37:26;101394.03;;;15.81;80.21
74075;BME280;62428;51.412;5.432;2023-07-13T04:39:52;101399.97;;;15.83;80.43
74075;BME280;62428;51.412;5.432;2023-07-13T04:42:18;101398.53;;;15.85;80.82
74075;BME280;62428;51.412;5.432;2023-07-13T04:44:51;101395.50;;;15.87;80.98
74075;BME280;62428;51.412;5.432;2023-07-13T04:47:17;101405.38;;;15.91;81.06
74075;BME280;62428;51.412;5.432;2023-07-13T04:49:43;101400.97;;;15.95;81.02
74075;BME280;62428;51.412;5.432;2023-07-13T04:52:08;101401.63;;;16.01;81.11
74075;BME280;62428;51.412;5.432;2023-07-13T04:54:34;101402.56;;;16.05;81.43
74075;BME280;62428;51.412;5.432;2023-07-13T04:57:00;101403.84;;;16.08;81.46
74075;BME280;62428;51.412;5.432;2023-07-13T04:59:26;101408.34;;;16.12;81.54
74075;BME280;62428;51.412;5.432;2023-07-13T05:01:51;101406.59;;;16.17;81.46
74075;BME280;62428;51.412;5.432;2023-07-13T05:04:17;101409.47;;;16.20;81.50
74075;BME280;62428;51.412;5.432;2023-07-13T05:06:42;101413.94;;;16.25;81.59
74075;BME280;62428;51.412;5.432;2023-07-13T05:09:08;101415.22;;;16.27;81.66
74075;BME280;62428;51.412;5.432;2023-07-13T05:11:33;101416.19;;;16.31;81.58
74075;BME280;62428;51.412;5.432;2023-07-13T05:13:59;101421.28;;;16.33;82.15
74075;BME280;62428;51.412;5.432;2023-07-13T05:16:27;101430.38;;;16.37;81.53
74075;BME280;62428;51.412;5.432;2023-07-13T05:18:53;101422.25;;;16.37;81.44
74075;BME280;62428;51.412;5.432;2023-07-13T05:21:19;101428.50;;;16.38;81.69
74075;BME280;62428;51.412;5.432;2023-07-13T05:23:45;101430.53;;;16.41;81.73
74075;BME280;62428;51.412;5.432;2023-07-13T05:26:11;101429.44;;;16.42;81.92
74075;BME280;62428;51.412;5.432;2023-07-13T05:28:37;101433.13;;;16.46;81.73
74075;BME280;62428;51.412;5.432;2023-07-13T05:31:03;101431.84;;;16.43;81.42
74075;BME280;62428;51.412;5.432;2023-07-13T05:33:29;101438.06;;;16.44;81.75
74075;BME280;62428;51.412;5.432;2023-07-13T05:35:54;101439.66;;;16.45;81.71
74075;BME280;62428;51.412;5.432;2023-07-13T05:38:20;101445.09;;;16.45;81.41
74075;BME280;62428;51.412;5.432;2023-07-13T05:40:46;101435.50;;;16.47;81.88
74075;BME280;62428;51.412;5.432;2023-07-13T05:43:12;101438.69;;;16.49;81.25
74075;BME280;62428;51.412;5.432;2023-07-13T05:45:38;101448.44;;;16.50;81.50
74075;BME280;62428;51.412;5.432;2023-07-13T05:48:04;101446.69;;;16.55;81.78
74075;BME280;62428;51.412;5.432;2023-07-13T05:50:29;101442.53;;;16.57;81.86
74075;BME280;62428;51.412;5.432;2023-07-13T05:52:55;101450.34;;;16.59;81.12
74075;BME280;62428;51.412;5.432;2023-07-13T05:55:21;101449.09;;;16.56;81.40
74075;BME280;62428;51.412;5.432;2023-07-13T05:57:47;101451.00;;;16.56;81.53
74075;BME280;62428;51.412;5.432;2023-07-13T06:00:13;101461.88;;;16.56;81.35
74075;BME280;62428;51.412;5.432;2023-07-13T06:02:38;101454.69;;;16.60;81.55
74075;BME280;62428;51.412;5.432;2023-07-13T06:05:04;101457.88;;;16.62;81.08
74075;BME280;62428;51.412;5.432;2023-07-13T06:07:30;101460.75;;;16.65;81.48
74075;BME280;62428;51.412;5.432;2023-07-13T06:09:55;101460.44;;;16.67;81.36
74075;BME280;62428;51.412;5.432;2023-07-13T06:12:21;101476.41;;;16.68;81.41
74075;BME280;62428;51.412;5.432;2023-07-13T06:14:46;101473.03;;;16.71;81.16
74075;BME280;62428;51.412;5.432;2023-07-13T06:17:12;101471.63;;;16.74;81.63
74075;BME280;62428;51.412;5.432;2023-07-13T06:19:38;101476.38;;;16.77;81.66
74075;BME280;62428;51.412;5.432;2023-07-13T06:22:03;101475.75;;;16.80;81.29
74075;BME280;62428;51.412;5.432;2023-07-13T06:24:29;101474.66;;;16.81;80.75
74075;BME280;62428;51.412;5.432;2023-07-13T06:26:54;101475.94;;;16.84;81.16
74075;BME280;62428;51.412;5.432;2023-07-13T06:29:20;101481.84;;;16.86;80.81
74075;BME280;62428;51.412;5.432;2023-07-13T06:31:45;101478.03;;;16.87;80.79
74075;BME280;62428;51.412;5.432;2023-07-13T06:34:10;101486.03;;;16.92;81.16
74075;BME280;62428;51.412;5.432;2023-07-13T06:36:36;101485.69;;;16.94;80.58
74075;BME280;62428;51.412;5.432;2023-07-13T06:39:03;101480.72;;;16.96;80.90
74075;BME280;62428;51.412;5.432;2023-07-13T06:41:29;101493.50;;;16.95;80.52
74075;BME280;62428;51.412;5.432;2023-07-13T06:43:55;101484.25;;;16.96;80.73
74075;BME280;62428;51.412;5.432;2023-07-13T06:46:22;101494.00;;;16.97;80.91
74075;BME280;62428;51.412;5.432;2023-07-13T06:48:48;101489.69;;;16.96;80.36
74075;BME280;62428;51.412;5.432;2023-07-13T06:51:13;101492.41;;;16.96;80.93
74075;BME280;62428;51.412;5.432;2023-07-13T06:53:39;101494.81;;;16.98;80.98
74075;BME280;62428;51.412;5.432;2023-07-13T06:56:04;101503.09;;;17.01;81.11
74075;BME280;62428;51.412;5.432;2023-07-13T06:58:30;101502.78;;;17.03;80.73
74075;BME280;62428;51.412;5.432;2023-07-13T07:00:56;101496.72;;;17.06;80.39
74075;BME280;62428;51.412;5.432;2023-07-13T07:03:21;101503.75;;;17.07;80.22
74075;BME280;62428;51.412;5.432;2023-07-13T07:05:47;101501.50;;;17.09;81.20
74075;BME280;62428;51.412;5.432;2023-07-13T07:08:12;101497.03;;;17.13;80.01
74075;BME280;62428;51.412;5.432;2023-07-13T07:10:38;101497.50;;;17.15;80.08
74075;BME280;62428;51.412;5.432;2023-07-13T07:13:03;101506.13;;;17.17;80.48
74075;BME280;62428;51.412;5.432;2023-07-13T07:15:29;101503.09;;;17.19;80.23
74075;BME280;62428;51.412;5.432;2023-07-13T07:17:55;101504.69;;;17.20;80.43
74075;BME280;62428;51.412;5.432;2023-07-13T07:20:20;101504.03;;;17.23;80.12
74075;BME280;62428;51.412;5.432;2023-07-13T07:22:46;101503.09;;;17.27;79.97
74075;BME280;62428;51.412;5.432;2023-07-13T07:25:12;101510.59;;;17.31;79.76
74075;BME280;62428;51.412;5.432;2023-07-13T07:27:38;101511.88;;;17.33;79.52
74075;BME280;62428;51.412;5.432;2023-07-13T07:30:04;101511.56;;;17.35;79.27
74075;BME280;62428;51.412;5.432;2023-07-13T07:32:30;101509.47;;;17.40;79.40
74075;BME280;62428;51.412;5.432;2023-07-13T07:34:57;101507.84;;;17.48;79.70
74075;BME280;62428;51.412;5.432;2023-07-13T07:37:22;101516.78;;;17.66;78.99
74075;BME280;62428;51.412;5.432;2023-07-13T07:39:48;101510.34;;;17.88;77.51
74075;BME280;62428;51.412;5.432;2023-07-13T07:42:13;101514.75;;;18.10;77.10
74075;BME280;62428;51.412;5.432;2023-07-13T07:44:40;101516.41;;;18.32;75.75
74075;BME280;62428;51.412;5.432;2023-07-13T07:47:06;101504.53;;;18.67;76.32
74075;BME280;62428;51.412;5.432;2023-07-13T07:49:32;101520.56;;;19.10;72.77
74075;BME280;62428;51.412;5.432;2023-07-13T07:51:57;101514.50;;;19.26;72.05
74075;BME280;62428;51.412;5.432;2023-07-13T07:54:22;101520.59;;;19.44;71.89
74075;BME280;62428;51.412;5.432;2023-07-13T07:56:48;101530.63;;;19.52;71.71
74075;BME280;62428;51.412;5.432;2023-07-13T07:59:13;101526.66;;;19.62;71.78
74075;BME280;62428;51.412;5.432;2023-07-13T08:01:39;101524.50;;;19.88;69.49
74075;BME280;62428;51.412;5.432;2023-07-13T08:04:05;101521.66;;;20.09;69.08
74075;BME280;62428;51.412;5.432;2023-07-13T08:06:32;101529.53;;;20.35;68.24
74075;BME280;62428;51.412;5.432;2023-07-13T08:08:58;101528.50;;;20.40;68.06
74075;BME280;62428;51.412;5.432;2023-07-13T08:11:24;101518.69;;;20.51;67.37
74075;BME280;62428;51.412;5.432;2023-07-13T08:13:50;101520.19;;;20.49;66.29
74075;BME280;62428;51.412;5.432;2023-07-13T08:16:16;101515.06;;;20.35;65.39
74075;BME280;62428;51.412;5.432;2023-07-13T08:18:41;101526.47;;;20.25;66.02
74075;BME280;62428;51.412;5.432;2023-07-13T08:21:07;101528.03;;;20.26;66.78
74075;BME280;62428;51.412;5.432;2023-07-13T08:23:34;101520.75;;;20.54;66.63
74075;BME280;62428;51.412;5.432;2023-07-13T08:25:59;101520.16;;;20.86;66.08
74075;BME280;62428;51.412;5.432;2023-07-13T08:28:27;101527.31;;;21.03;64.47
74075;BME280;62428;51.412;5.432;2023-07-13T08:30:53;101529.66;;;21.04;63.40
74075;BME280;62428;51.412;5.432;2023-07-13T08:33:19;101532.56;;;20.96;62.18
74075;BME280;62428;51.412;5.432;2023-07-13T08:35:46;101529.06;;;20.83;63.97
74075;BME280;62428;51.412;5.432;2023-07-13T08:38:12;101531.72;;;21.07;63.56
74075;BME280;62428;51.412;5.432;2023-07-13T08:40:38;101527.34;;;21.19;62.29
74075;BME280;62428;51.412;5.432;2023-07-13T08:43:04;101534.09;;;21.09;61.61
74075;BME280;62428;51.412;5.432;2023-07-13T08:48:19;101524.81;;;21.26;62.45
74075;BME280;62428;51.412;5.432;2023-07-13T08:50:58;101525.97;;;21.25;61.81
74075;BME280;62428;51.412;5.432;2023-07-13T08:53:34;101536.34;;;21.19;62.38
74075;BME280;62428;51.412;5.432;2023-07-13T08:56:02;101540.06;;;21.27;62.46
74075;BME280;62428;51.412;5.432;2023-07-13T08:58:28;101529.97;;;21.15;61.07
74075;BME280;62428;51.412;5.432;2023-07-13T09:01:18;101532.19;;;20.97;62.64
74075;BME280;62428;51.412;5.432;2023-07-13T09:04:18;101529.28;;;20.78;63.10
74075;BME280;62428;51.412;5.432;2023-07-13T09:12:09;101528.28;;;20.45;63.25
74075;BME280;62428;51.412;5.432;2023-07-13T09:14:45;101529.75;;;20.43;62.85
74075;BME280;62428;51.412;5.432;2023-07-13T09:17:19;101522.59;;;20.50;62.64
74075;BME280;62428;51.412;5.432;2023-07-13T09:19:48;101522.91;;;20.73;62.29
74075;BME280;62428;51.412;5.432;2023-07-13T09:22:19;101526.38;;;20.99;61.54
74075;BME280;62428;51.412;5.432;2023-07-13T09:25:04;101526.09;;;21.16;61.14
74075;BME280;62428;51.412;5.432;2023-07-13T09:27:40;101521.34;;;21.41;60.02
74075;BME280;62428;51.412;5.432;2023-07-13T09:32:41;101519.63;;;21.37;57.92
74075;BME280;62428;51.412;5.432;2023-07-13T09:35:12;101525.09;;;21.37;59.72
74075;BME280;62428;51.412;5.432;2023-07-13T09:37:40;101514.59;;;21.51;58.98
74075;BME280;62428;51.412;5.432;2023-07-13T09:40:22;101514.25;;;21.53;59.88
74075;BME280;62428;51.412;5.432;2023-07-13T09:42:52;101515.56;;;21.59;58.37
74075;BME280;62428;51.412;5.432;2023-07-13T09:45:27;101522.81;;;21.67;58.04
74075;BME280;62428;51.412;5.432;2023-07-13T09:47:59;101520.78;;;21.64;57.89
74075;BME280;62428;51.412;5.432;2023-07-13T09:50:28;101516.53;;;21.50;58.57
74075;BME280;62428;51.412;5.432;2023-07-13T09:52:54;101527.84;;;21.37;58.67
74075;BME280;62428;51.412;5.432;2023-07-13T09:57:49;101526.66;;;21.22;59.49
74075;BME280;62428;51.412;5.432;2023-07-13T10:00:25;101524.06;;;21.41;61.07
74075;BME280;62428;51.412;5.432;2023-07-13T10:05:37;101526.44;;;21.71;60.24
74075;BME280;62428;51.412;5.432;2023-07-13T10:08:03;101535.28;;;21.80;58.92
74075;BME280;62428;51.412;5.432;2023-07-13T10:10:28;101534.84;;;21.78;58.39
74075;BME280;62428;51.412;5.432;2023-07-13T10:12:54;101520.78;;;21.64;58.51
74075;BME280;62428;51.412;5.432;2023-07-13T10:15:23;101523.53;;;21.64;58.62
74075;BME280;62428;51.412;5.432;2023-07-13T10:17:54;101530.50;;;21.77;58.56
74075;BME280;62428;51.412;5.432;2023-07-13T10:20:21;101528.66;;;21.81;57.66
74075;BME280;62428;51.412;5.432;2023-07-13T10:23:02;101530.41;;;21.89;58.17
74075;BME280;62428;51.412;5.432;2023-07-13T10:25:32;101530.69;;;22.00;57.36
74075;BME280;62428;51.412;5.432;2023-07-13T10:30:39;101539.59;;;21.81;55.71
74075;BME280;62428;51.412;5.432;2023-07-13T10:33:12;101540.19;;;21.75;56.87
74075;BME280;62428;51.412;5.432;2023-07-13T10:35:39;101536.16;;;21.68;57.11
74075;BME280;62428;51.412;5.432;2023-07-13T10:38:11;101529.78;;;21.64;57.70
74075;BME280;62428;51.412;5.432;2023-07-13T10:40:40;101535.97;;;21.61;57.64
74075;BME280;62428;51.412;5.432;2023-07-13T10:43:38;101537.00;;;21.57;56.73
74075;BME280;62428;51.412;5.432;2023-07-13T10:46:07;101530.44;;;21.45;54.92
74075;BME280;62428;51.412;5.432;2023-07-13T10:48:34;101536.72;;;21.34;55.79
74075;BME280;62428;51.412;5.432;2023-07-13T10:51:03;101546.31;;;21.27;59.63
74075;BME280;62428;51.412;5.432;2023-07-13T10:53:36;101549.41;;;21.26;60.18
74075;BME280;62428;51.412;5.432;2023-07-13T10:56:03;101551.41;;;21.41;60.51
74075;BME280;62428;51.412;5.432;2023-07-13T11:01:09;101544.06;;;21.58;59.40
74075;BME280;62428;51.412;5.432;2023-07-13T11:03:45;101543.09;;;21.66;58.74
74075;BME280;62428;51.412;5.432;2023-07-13T11:09:18;101544.78;;;21.71;57.85
74075;BME280;62428;51.412;5.432;2023-07-13T11:11:44;101544.34;;;21.68;55.89
74075;BME280;62428;51.412;5.432;2023-07-13T11:16:57;101540.50;;;21.57;55.89
74075;BME280;62428;51.412;5.432;2023-07-13T11:22:12;101538.53;;;21.42;55.81
74075;BME280;62428;51.412;5.432;2023-07-13T11:24:48;101545.69;;;21.46;56.14
74075;BME280;62428;51.412;5.432;2023-07-13T11:27:40;101539.31;;;21.71;56.64
74075;BME280;62428;51.412;5.432;2023-07-13T11:30:22;101533.34;;;21.97;54.94
74075;BME280;62428;51.412;5.432;2023-07-13T11:33:22;101539.06;;;22.23;54.57
74075;BME280;62428;51.412;5.432;2023-07-13T11:38:30;101547.00;;;22.60;52.46
74075;BME280;62428;51.412;5.432;2023-07-13T11:41:01;101533.75;;;22.62;52.98
74075;BME280;62428;51.412;5.432;2023-07-13T11:43:29;101542.13;;;22.70;53.29
74075;BME280;62428;51.412;5.432;2023-07-13T11:45:54;101537.31;;;22.82;53.72
74075;BME280;62428;51.412;5.432;2023-07-13T11:48:28;101546.19;;;22.95;53.13
74075;BME280;62428;51.412;5.432;2023-07-13T11:51:04;101531.44;;;23.19;51.59
74075;BME280;62428;51.412;5.432;2023-07-13T11:53:39;101542.09;;;23.44;50.62
74075;BME280;62428;51.412;5.432;2023-07-13T11:56:06;101545.03;;;23.55;48.26
74075;BME280;62428;51.412;5.432;2023-07-13T11:58:32;101545.59;;;23.64;47.59
74075;BME280;62428;51.412;5.432;2023-07-13T12:01:00;101541.03;;;23.72;48.10
74075;BME280;62428;51.412;5.432;2023-07-13T12:03:30;101547.72;;;23.74;47.88
74075;BME280;62428;51.412;5.432;2023-07-13T12:06:03;101546.66;;;23.79;46.82
74075;BME280;62428;51.412;5.432;2023-07-13T12:08:32;101551.94;;;23.68;46.26
74075;BME280;62428;51.412;5.432;2023-07-13T12:11:05;101552.59;;;23.61;46.87
74075;BME280;62428;51.412;5.432;2023-07-13T12:13:37;101555.41;;;23.65;44.50
74075;BME280;62428;51.412;5.432;2023-07-13T12:16:11;101555.09;;;23.70;45.59
74075;BME280;62428;51.412;5.432;2023-07-13T12:18:37;101563.91;;;23.79;45.86
74075;BME280;62428;51.412;5.432;2023-07-13T12:21:04;101559.69;;;23.86;44.76
74075;BME280;62428;51.412;5.432;2023-07-13T12:23:30;101566.72;;;23.83;43.16
74075;BME280;62428;51.412;5.432;2023-07-13T12:25:58;101568.47;;;23.72;43.63
74075;BME280;62428;51.412;5.432;2023-07-13T12:31:00;101566.59;;;23.56;45.16
74075;BME280;62428;51.412;5.432;2023-07-13T12:33:30;101569.66;;;23.51;45.72
74075;BME280;62428;51.412;5.432;2023-07-13T12:36:00;101564.03;;;23.44;46.15
74075;BME280;62428;51.412;5.432;2023-07-13T12:38:27;101566.28;;;23.38;46.23
74075;BME280;62428;51.412;5.432;2023-07-13T12:40:53;101564.03;;;23.25;46.55
74075;BME280;62428;51.412;5.432;2023-07-13T12:43:23;101574.63;;;23.07;47.84
74075;BME280;62428;51.412;5.432;2023-07-13T12:45:59;101576.59;;;22.90;48.79
74075;BME280;62428;51.412;5.432;2023-07-13T12:48:25;101584.84;;;22.74;49.07
74075;BME280;62428;51.412;5.432;2023-07-13T12:50:53;101591.34;;;22.50;49.66
74075;BME280;62428;51.412;5.432;2023-07-13T12:53:27;101585.34;;;22.29;49.05
74075;BME280;62428;51.412;5.432;2023-07-13T12:55:56;101593.34;;;22.05;49.30
74075;BME280;62428;51.412;5.432;2023-07-13T12:58:37;101587.31;;;21.84;50.16
74075;BME280;62428;51.412;5.432;2023-07-13T13:01:04;101578.63;;;21.66;52.02
74075;BME280;62428;51.412;5.432;2023-07-13T13:04:12;101588.94;;;21.57;53.97
74075;BME280;62428;51.412;5.432;2023-07-13T13:06:25;101591.38;;;21.46;56.22
74075;BME280;62428;51.412;5.432;2023-07-13T13:08:56;101596.06;;;21.33;57.74
74075;BME280;62428;51.412;5.432;2023-07-13T13:11:24;101611.34;;;21.22;61.12
74075;BME280;62428;51.412;5.432;2023-07-13T13:13:52;101606.34;;;21.11;63.99
74075;BME280;62428;51.412;5.432;2023-07-13T13:16:21;101618.22;;;21.03;66.54
74075;BME280;62428;51.412;5.432;2023-07-13T13:18:47;101606.28;;;20.96;66.71
74075;BME280;62428;51.412;5.432;2023-07-13T13:21:13;101617.44;;;20.90;66.06
74075;BME280;62428;51.412;5.432;2023-07-13T13:23:39;101621.63;;;20.88;64.55
74075;BME280;62428;51.412;5.432;2023-07-13T13:26:10;101626.66;;;20.86;64.25
74075;BME280;62428;51.412;5.432;2023-07-13T13:28:35;101629.50;;;20.77;65.81
74075;BME280;62428;51.412;5.432;2023-07-13T13:31:01;101626.91;;;20.68;65.64